Time;durP1;ratioP1;P1;durP2;ratioP2;P2;SDS_P1;SDS_P2;PMS_P1;PMS_P2;Temp;Humidity;BMP_temperature;BMP_pressure;BME280_temperature;BME280_humidity;BME280_pressure;Samples;Min_cycle;Max_cycle;Signal;HPM_P1;HPM_P2
2022/06/04 00:02:04;;;;;;;17.25;5.60;;;20.30;99.90;;;;;;5040379;28;20155;-84
2022/06/04 00:04:30;;;;;;;13.05;5.38;;;20.30;99.90;;;;;;5042370;28;20056;-82
2022/06/04 00:06:56;;;;;;;10.85;4.80;;;20.40;99.90;;;;;;5045684;28;20106;-83
2022/06/04 00:09:25;;;;;;;12.50;4.97;;;20.40;99.90;;;;;;5039106;28;20538;-83
2022/06/04 00:17:24;;;;;;;14.68;5.43;;;20.40;99.90;;;;;;5038098;28;20033;-83
2022/06/04 00:19:50;;;;;;;18.52;5.53;;;20.40;99.90;;;;;;5037753;28;20479;-82
2022/06/04 00:22:17;;;;;;;10.70;4.80;;;20.40;99.90;;;;;;5044487;28;20108;-82
2022/06/04 00:24:44;;;;;;;12.32;5.10;;;20.20;99.90;;;;;;5038890;28;20018;-82
2022/06/04 00:27:19;;;;;;;10.30;4.70;;;20.20;99.90;;;;;;5039411;28;20021;-82
2022/06/04 00:29:45;;;;;;;11.40;4.60;;;20.10;99.90;;;;;;5035690;28;20053;-82
2022/06/04 00:32:12;;;;;;;8.00;4.07;;;20.10;99.90;;;;;;5017698;28;20056;-82
2022/06/04 00:34:37;;;;;;;11.20;5.32;;;20.00;99.90;;;;;;5020164;28;20040;-82
2022/06/04 00:37:03;;;;;;;10.48;5.03;;;20.00;99.90;;;;;;5027312;28;20021;-82
2022/06/04 00:39:29;;;;;;;9.88;4.63;;;19.80;99.90;;;;;;5024821;28;20043;-82
2022/06/04 00:42:12;;;;;;;11.27;4.60;;;19.80;99.90;;;;;;5039678;28;20388;-82
2022/06/04 00:45:15;;;;;;;10.32;4.70;;;19.80;99.90;;;;;;5035224;28;20017;-82
2022/06/04 00:47:41;;;;;;;14.10;5.22;;;19.70;99.90;;;;;;5038581;28;20488;-82
2022/06/04 00:50:09;;;;;;;9.10;4.95;;;19.70;99.90;;;;;;5042384;28;20060;-82
2022/06/04 00:52:35;;;;;;;9.07;4.70;;;19.60;99.90;;;;;;5036963;28;20044;-82
2022/06/04 00:55:04;;;;;;;10.32;4.95;;;19.50;99.90;;;;;;5040577;28;20049;-82
2022/06/04 00:57:55;;;;;;;12.30;4.95;;;19.50;99.90;;;;;;5037481;28;20128;-82
2022/06/04 01:00:28;;;;;;;14.95;5.45;;;19.50;99.90;;;;;;5024461;28;20037;-82
2022/06/04 01:03:09;;;;;;;14.90;5.22;;;19.40;99.90;;;;;;5027790;28;20029;-83
2022/06/04 01:06:06;;;;;;;19.83;5.50;;;19.50;99.90;;;;;;5037167;28;20105;-82
2022/06/04 01:08:32;;;;;;;15.00;5.13;;;19.50;99.90;;;;;;5019788;28;20018;-82
2022/06/04 01:12:09;;;;;;;16.55;5.30;;;19.60;99.90;;;;;;5021811;28;20373;-82
2022/06/04 01:14:39;;;;;;;12.48;5.20;;;19.60;99.90;;;;;;5014818;28;20468;-83
2022/06/04 01:17:19;;;;;;;7.53;4.15;;;19.70;99.90;;;;;;5017349;28;20021;-83
2022/06/04 01:19:56;;;;;;;9.23;4.55;;;19.60;99.90;;;;;;5019212;28;20025;-82
2022/06/04 01:22:43;;;;;;;9.73;4.47;;;19.50;99.90;;;;;;5044832;28;20021;-82
2022/06/04 01:25:39;;;;;;;8.75;4.15;;;19.30;99.90;;;;;;5038005;28;20017;-83
2022/06/04 01:28:12;;;;;;;12.07;5.07;;;19.20;99.90;;;;;;5033879;28;20050;-83
2022/06/04 01:30:48;;;;;;;12.85;5.63;;;19.10;99.90;;;;;;5019155;28;20021;-83
2022/06/04 01:33:40;;;;;;;9.88;4.07;;;19.10;99.90;;;;;;5047683;28;20149;-83
2022/06/04 01:36:10;;;;;;;12.97;4.73;;;19.00;99.90;;;;;;5015672;28;20073;-83
2022/06/04 01:38:41;;;;;;;9.48;4.60;;;19.00;99.90;;;;;;5045407;28;20028;-82
2022/06/04 01:41:17;;;;;;;8.27;4.63;;;18.90;99.90;;;;;;5040208;28;20028;-82
2022/06/04 01:43:49;;;;;;;12.82;4.63;;;19.00;99.90;;;;;;5046223;28;20021;-83
2022/06/04 01:46:22;;;;;;;14.38;4.88;;;18.90;99.90;;;;;;5042457;28;20021;-83
2022/06/04 01:48:51;;;;;;;11.55;5.05;;;18.90;99.90;;;;;;5018298;28;20021;-83
2022/06/04 01:51:21;;;;;;;13.23;5.13;;;18.80;99.90;;;;;;5045464;28;20059;-83
2022/06/04 01:53:51;;;;;;;9.75;4.93;;;18.80;99.90;;;;;;5034415;28;20032;-83
2022/06/04 01:56:28;;;;;;;17.95;5.22;;;18.80;99.90;;;;;;5044285;28;20025;-83
2022/06/04 01:59:01;;;;;;;9.95;5.10;;;18.80;99.90;;;;;;5017858;28;20026;-83
2022/06/04 02:01:33;;;;;;;9.88;4.30;;;18.80;99.90;;;;;;5040647;28;20041;-82
2022/06/04 02:04:06;;;;;;;14.10;4.90;;;18.80;99.90;;;;;;5024255;28;20514;-82
2022/06/04 02:07:29;;;;;;;13.30;5.20;;;18.80;99.90;;;;;;5028214;28;20029;-82
2022/06/04 02:09:35;;;;;;;10.82;4.93;;;18.90;99.90;;;;;;5040220;28;20143;-82
2022/06/04 02:12:03;;;;;;;9.07;5.10;;;19.00;99.90;;;;;;5029892;28;20027;-82
2022/06/04 02:14:28;;;;;;;11.10;5.30;;;19.00;99.90;;;;;;5040468;28;20036;-83
2022/06/04 02:17:03;;;;;;;16.40;5.20;;;19.00;99.90;;;;;;5042618;28;20021;-83
2022/06/04 02:19:29;;;;;;;13.95;4.63;;;19.00;99.90;;;;;;5044113;28;20387;-82
2022/06/04 02:21:55;;;;;;;11.95;5.13;;;18.90;99.90;;;;;;5029634;28;20021;-82
2022/06/04 02:24:21;;;;;;;12.02;4.70;;;18.80;99.90;;;;;;5023389;28;20026;-83
2022/06/04 02:26:47;;;;;;;12.55;4.82;;;18.70;99.90;;;;;;5028894;28;20174;-83
2022/06/04 02:29:14;;;;;;;11.43;4.78;;;18.70;99.90;;;;;;5041497;28;20112;-83
2022/06/04 02:31:50;;;;;;;14.57;5.18;;;18.60;99.90;;;;;;5038711;28;20025;-83
2022/06/04 02:34:42;;;;;;;12.88;4.78;;;18.60;99.90;;;;;;5025317;28;20495;-83
2022/06/04 02:37:30;;;;;;;14.18;4.90;;;18.60;99.90;;;;;;5047118;28;20040;-83
2022/06/04 02:40:02;;;;;;;12.57;5.15;;;18.50;99.90;;;;;;5024029;28;20074;-83
2022/06/04 02:42:43;;;;;;;16.17;4.72;;;18.50;99.90;;;;;;5027547;28;20116;-83
2022/06/04 02:45:15;;;;;;;13.25;5.07;;;18.50;99.90;;;;;;5026129;28;20040;-83
2022/06/04 02:48:09;;;;;;;9.75;5.20;;;18.50;99.90;;;;;;5014875;28;20116;-83
2022/06/04 02:50:41;;;;;;;14.55;5.63;;;18.50;99.90;;;;;;5037352;28;20229;-83
2022/06/04 02:53:07;;;;;;;;;;;18.50;99.90;;;;;;5026953;28;20037;-84
2022/06/04 02:55:44;;;;;;;10.15;5.03;;;18.40;99.90;;;;;;5042901;28;20355;-83
2022/06/04 02:58:14;;;;;;;16.45;5.32;;;18.30;99.90;;;;;;5039575;28;20078;-84
2022/06/04 03:00:41;;;;;;;12.82;5.05;;;18.30;99.90;;;;;;5039687;28;20036;-83
2022/06/04 03:03:12;;;;;;;9.32;5.68;;;18.20;99.90;;;;;;5039851;28;20385;-83
2022/06/04 03:05:39;;;;;;;12.80;5.72;;;18.20;99.90;;;;;;5044635;28;20025;-83
2022/06/04 03:08:05;;;;;;;10.98;6.15;;;18.20;99.90;;;;;;5039267;28;20017;-83
2022/06/04 03:10:35;;;;;;;12.82;5.65;;;18.20;99.90;;;;;;5035470;28;20025;-83
2022/06/04 03:13:01;;;;;;;14.77;5.30;;;18.20;99.90;;;;;;5015436;28;20013;-83
2022/06/04 03:15:27;;;;;;;14.07;5.50;;;18.20;99.90;;;;;;5024689;28;20033;-83
2022/06/04 03:17:53;;;;;;;10.43;5.30;;;18.20;99.90;;;;;;5022022;28;20520;-82
2022/06/04 03:20:22;;;;;;;11.43;5.65;;;18.20;99.90;;;;;;5026864;28;20021;-81
2022/06/04 03:22:49;;;;;;;10.52;5.97;;;18.20;99.90;;;;;;5038321;28;20021;-83
2022/06/04 03:25:15;;;;;;;12.55;5.72;;;18.10;99.90;;;;;;5044335;28;20044;-83
2022/06/04 03:27:41;;;;;;;12.27;5.68;;;18.10;99.90;;;;;;5021262;28;20476;-84
2022/06/04 03:30:08;;;;;;;16.10;6.20;;;18.10;99.90;;;;;;5022160;28;20101;-85
2022/06/04 03:32:34;;;;;;;12.63;5.75;;;18.10;99.90;;;;;;5038939;28;20029;-83
2022/06/04 03:35:00;;;;;;;16.08;5.90;;;18.10;99.90;;;;;;5041593;28;20485;-83
2022/06/04 03:37:26;;;;;;;12.40;5.35;;;18.20;99.90;;;;;;5026518;28;20021;-84
2022/06/04 03:39:51;;;;;;;10.48;5.80;;;18.20;99.90;;;;;;5040469;28;20028;-84
2022/06/04 03:42:17;;;;;;;9.70;6.03;;;18.10;99.90;;;;;;5020910;28;20029;-83
2022/06/04 03:44:47;;;;;;;13.70;5.95;;;18.20;99.90;;;;;;5025460;28;20460;-83
2022/06/04 03:47:14;;;;;;;13.90;6.38;;;18.20;99.90;;;;;;5033968;28;20028;-83
2022/06/04 03:49:40;;;;;;;10.48;5.72;;;18.30;99.90;;;;;;5043248;28;20028;-83
2022/06/04 03:52:06;;;;;;;9.65;5.53;;;18.30;99.90;;;;;;5045583;28;20041;-83
2022/06/04 04:00:01;;;;;;;9.15;5.63;;;18.50;99.90;;;;;;5040946;28;20056;-87
2022/06/04 04:02:26;;;;;;;10.55;5.00;;;18.50;99.90;;;;;;5020188;28;20468;-84
2022/06/04 04:04:52;;;;;;;8.70;5.28;;;18.50;99.90;;;;;;5042523;28;20029;-86
2022/06/04 04:07:18;;;;;;;9.95;5.28;;;18.60;99.90;;;;;;5024971;28;20049;-86
2022/06/04 04:09:43;;;;;;;8.73;5.28;;;18.60;99.90;;;;;;5038973;28;20029;-85
2022/06/04 04:12:09;;;;;;;11.38;5.93;;;18.60;99.90;;;;;;5015390;28;20476;-85
2022/06/04 04:14:35;;;;;;;13.45;6.07;;;18.60;99.90;;;;;;5024843;28;20120;-86
2022/06/04 04:17:01;;;;;;;13.57;5.93;;;18.70;99.90;;;;;;5021603;28;20472;-84
2022/06/04 04:19:30;;;;;;;14.52;5.40;;;18.70;99.90;;;;;;5041665;28;20479;-85
2022/06/04 04:21:55;;;;;;;13.57;7.55;;;18.80;99.90;;;;;;5023296;28;20025;-85
2022/06/04 04:24:21;;;;;;;11.93;7.90;;;18.90;99.90;;;;;;5023477;28;20025;-84
2022/06/04 04:26:47;;;;;;;14.90;6.38;;;18.90;99.90;;;;;;5044698;28;20017;-84
2022/06/04 04:29:13;;;;;;;7.00;5.40;;;18.90;99.90;;;;;;5021711;28;20029;-84
2022/06/04 04:31:38;;;;;;;8.73;5.32;;;19.00;99.90;;;;;;5036839;28;20181;-84
2022/06/04 04:34:04;;;;;;;15.75;5.88;;;19.10;99.90;;;;;;5040221;28;20036;-84
2022/06/04 04:36:31;;;;;;;6.88;5.30;;;19.10;99.90;;;;;;5043460;28;20078;-84
2022/06/04 04:38:57;;;;;;;8.82;5.63;;;19.10;99.90;;;;;;5023904;28;20021;-85
2022/06/04 04:41:23;;;;;;;8.02;5.05;;;19.20;99.90;;;;;;5023772;28;20509;-89
2022/06/04 04:43:50;;;;;;;14.23;5.00;;;19.30;99.90;;;;;;5024408;28;20038;-89
2022/06/04 04:46:16;;;;;;;13.85;5.80;;;19.30;99.90;;;;;;5043011;28;20037;-88
2022/06/04 04:48:44;;;;;;;9.38;5.25;;;19.40;99.90;;;;;;5025968;28;20032;-88
2022/06/04 04:51:22;;;;;;;12.23;5.32;;;19.50;99.90;;;;;;5023144;28;20056;-88
2022/06/04 04:53:49;;;;;;;9.63;4.97;;;19.60;99.90;;;;;;5013399;28;20515;-87
2022/06/04 04:56:16;;;;;;;9.82;5.60;;;19.60;99.90;;;;;;5026474;28;20023;-87
2022/06/04 04:58:42;;;;;;;7.55;5.60;;;19.70;99.90;;;;;;5043079;28;20021;-88
2022/06/04 05:01:21;;;;;;;9.18;5.07;;;19.80;99.90;;;;;;5017163;28;20026;-88
2022/06/04 05:03:47;;;;;;;13.90;5.32;;;19.90;99.90;;;;;;5031364;28;20026;-87
2022/06/04 05:06:15;;;;;;;10.90;5.43;;;20.00;99.90;;;;;;5044386;28;20025;-88
2022/06/04 05:08:40;;;;;;;9.27;5.20;;;20.00;99.90;;;;;;5029187;28;20052;-88
2022/06/04 05:11:08;;;;;;;11.05;5.60;;;20.10;99.90;;;;;;5026862;28;20499;-88
2022/06/04 05:13:34;;;;;;;9.02;5.18;;;20.10;99.90;;;;;;5031754;28;20040;-88
2022/06/04 05:16:00;;;;;;;9.88;5.18;;;20.20;99.90;;;;;;5047518;28;20041;-87
2022/06/04 05:18:25;;;;;;;10.68;5.10;;;20.30;99.90;;;;;;5041466;28;20021;-89
2022/06/04 05:20:51;;;;;;;9.02;5.60;;;20.40;99.90;;;;;;5029025;28;20052;-85
2022/06/04 05:23:17;;;;;;;7.20;5.05;;;20.50;99.90;;;;;;5045958;28;20053;-85
2022/06/04 05:25:44;;;;;;;8.15;4.93;;;20.60;99.90;;;;;;5026028;28;20032;-86
2022/06/04 05:28:10;;;;;;;10.52;5.40;;;20.70;99.90;;;;;;5046073;28;20021;-86
2022/06/04 05:30:36;;;;;;;9.43;5.38;;;20.80;99.90;;;;;;5042142;28;20039;-85
2022/06/04 05:33:02;;;;;;;9.02;4.82;;;20.80;99.90;;;;;;5036642;28;20255;-85
2022/06/04 05:35:28;;;;;;;13.38;4.70;;;20.90;99.90;;;;;;5026803;28;20099;-85
2022/06/04 05:37:53;;;;;;;7.00;4.72;;;21.00;99.90;;;;;;5028644;28;20026;-85
2022/06/04 05:40:19;;;;;;;13.13;4.80;;;21.10;99.90;;;;;;5026385;28;20392;-84
2022/06/04 05:42:45;;;;;;;9.45;5.20;;;21.30;99.90;;;;;;5040630;28;20022;-85
2022/06/04 05:45:10;;;;;;;14.15;4.53;;;21.30;99.90;;;;;;5044365;28;20033;-85
2022/06/04 05:47:36;;;;;;;9.45;4.05;;;21.40;99.90;;;;;;5041262;28;20123;-86
2022/06/04 05:50:03;;;;;;;6.32;3.85;;;21.50;99.90;;;;;;5045710;28;20037;-85
2022/06/04 05:52:29;;;;;;;11.85;4.82;;;21.60;99.90;;;;;;5045680;28;20044;-86
2022/06/04 05:54:54;;;;;;;9.10;4.53;;;21.70;99.90;;;;;;5024880;28;20032;-88
2022/06/04 05:57:20;;;;;;;9.18;4.03;;;21.80;99.90;;;;;;5029634;28;20197;-84
2022/06/04 05:59:48;;;;;;;7.43;4.03;;;21.90;99.90;;;;;;5040366;28;20028;-87
2022/06/04 06:02:15;;;;;;;10.63;4.85;;;22.00;99.90;;;;;;5039278;28;20552;-93
2022/06/04 06:04:41;;;;;;;10.57;4.78;;;22.10;99.90;;;;;;5049205;28;20043;-90
2022/06/04 06:07:06;;;;;;;6.70;4.45;;;22.20;99.90;;;;;;5030352;28;20021;-90
2022/06/04 06:09:32;;;;;;;7.40;4.22;;;22.30;99.90;;;;;;5022979;28;20037;-88
2022/06/04 06:11:58;;;;;;;9.63;4.10;;;22.50;99.90;;;;;;5028559;28;20021;-90
2022/06/04 06:14:24;;;;;;;14.90;4.72;;;22.60;99.90;;;;;;5020473;28;20033;-91
2022/06/04 06:16:51;;;;;;;15.50;4.90;;;22.70;99.90;;;;;;5024720;28;20053;-86
2022/06/04 06:19:19;;;;;;;9.75;4.40;;;22.80;99.90;;;;;;5024794;28;20033;-90
2022/06/04 06:21:45;;;;;;;9.23;3.83;;;23.00;99.90;;;;;;5041842;28;20018;-86
2022/06/04 06:24:13;;;;;;;10.13;4.28;;;23.00;99.90;;;;;;5024119;28;20247;-83
2022/06/04 06:26:52;;;;;;;11.90;4.55;;;23.20;99.90;;;;;;5037440;28;20009;-88
2022/06/04 06:29:18;;;;;;;7.63;4.10;;;23.40;99.90;;;;;;5024448;28;20029;-93
2022/06/04 06:31:45;;;;;;;13.68;5.20;;;23.50;99.90;;;;;;5037948;28;20071;-89
2022/06/04 06:34:11;;;;;;;9.57;4.63;;;23.70;99.90;;;;;;5024053;28;20033;-89
2022/06/04 06:36:37;;;;;;;11.43;4.43;;;23.80;99.90;;;;;;5026122;28;20086;-92
2022/06/04 06:39:03;;;;;;;18.60;5.05;;;23.90;99.90;;;;;;5024202;28;20022;-96
2022/06/04 06:41:29;;;;;;;21.75;5.38;;;24.00;99.90;;;;;;5040247;28;20265;-88
2022/06/04 06:43:55;;;;;;;16.45;4.78;;;24.10;99.90;;;;;;5024337;28;20033;-86
2022/06/04 06:46:31;;;;;;;10.20;4.50;;;24.30;99.90;;;;;;5038366;28;20546;-87
2022/06/04 06:49:06;;;;;;;9.30;4.75;;;24.30;99.90;;;;;;5039137;28;20412;-85
2022/06/04 06:51:56;;;;;;;16.08;4.55;;;24.30;99.90;;;;;;5039949;28;20033;-85
2022/06/04 06:54:24;;;;;;;11.18;5.28;;;24.50;99.90;;;;;;5038893;28;20036;-84
2022/06/04 06:56:51;;;;;;;24.17;5.60;;;24.60;99.90;;;;;;5049057;28;20083;-90
2022/06/04 06:59:20;;;;;;;14.35;4.93;;;24.40;99.90;;;;;;5041524;28;20052;-88
2022/06/04 07:01:48;;;;;;;11.18;5.82;;;24.30;99.90;;;;;;5036934;28;20045;-86
2022/06/04 07:04:14;;;;;;;16.85;7.60;;;24.30;99.90;;;;;;5026412;28;20503;-92
2022/06/04 07:06:46;;;;;;;15.25;7.20;;;24.30;99.90;;;;;;5045149;28;20022;-90
2022/06/04 07:09:24;;;;;;;12.93;6.60;;;24.20;99.90;;;;;;5025601;28;20488;-90
2022/06/04 07:11:51;;;;;;;13.68;6.63;;;24.20;99.90;;;;;;5028119;28;20396;-87
2022/06/04 07:14:18;;;;;;;16.70;6.05;;;24.30;99.90;;;;;;5042861;28;20052;-92
2022/06/04 07:16:44;;;;;;;22.58;6.35;;;24.40;99.90;;;;;;5040230;28;20100;-91
2022/06/04 07:19:11;;;;;;;11.77;5.78;;;24.50;99.90;;;;;;5022476;28;20387;-89
2022/06/04 07:21:37;;;;;;;14.68;6.18;;;24.60;99.90;;;;;;5023901;28;20534;-89
2022/06/04 07:24:03;;;;;;;9.98;6.32;;;24.80;99.90;;;;;;5039439;28;20033;-92
2022/06/04 07:26:29;;;;;;;15.43;6.20;;;24.70;99.90;;;;;;5024714;28;20167;-87
2022/06/04 07:28:55;;;;;;;15.00;5.72;;;24.70;99.90;;;;;;5027789;28;20116;-89
2022/06/04 07:31:24;;;;;;;14.38;5.25;;;24.80;99.90;;;;;;5040215;28;20030;-88
2022/06/04 07:33:55;;;;;;;13.05;5.60;;;24.80;99.90;;;;;;5032481;28;20192;-90
2022/06/04 07:36:33;;;;;;;16.30;6.15;;;24.90;99.90;;;;;;5037557;28;20025;-89
2022/06/04 07:38:59;;;;;;;13.48;6.35;;;24.90;99.90;;;;;;5021929;28;20608;-84
2022/06/04 07:41:32;;;;;;;13.55;6.30;;;24.90;99.90;;;;;;5040218;28;20118;-92
2022/06/04 07:43:58;;;;;;;14.38;6.22;;;24.80;99.90;;;;;;5024660;28;20025;-87
2022/06/04 07:46:29;;;;;;;13.77;5.20;;;24.70;99.90;;;;;;5024457;28;20028;-92
2022/06/04 07:48:56;;;;;;;11.52;5.55;;;24.60;99.90;;;;;;5040092;28;20095;-91
2022/06/04 07:51:22;;;;;;;11.32;5.82;;;24.50;99.90;;;;;;5013688;28;20082;-84
2022/06/04 07:53:48;;;;;;;12.90;6.25;;;24.60;99.90;;;;;;5033091;28;20240;-87
2022/06/04 07:56:17;;;;;;;13.05;6.07;;;24.70;99.90;;;;;;5018487;28;20112;-84
2022/06/04 07:58:43;;;;;;;12.02;5.95;;;24.70;99.90;;;;;;5019964;28;20021;-89
2022/06/04 08:01:10;;;;;;;14.85;5.82;;;24.80;99.90;;;;;;5021784;28;20503;-89
2022/06/04 08:03:37;;;;;;;11.15;5.65;;;24.90;99.90;;;;;;5020728;28;20510;-87
2022/06/04 08:06:05;;;;;;;13.95;5.63;;;25.00;99.90;;;;;;5037222;28;20021;-89
2022/06/04 08:08:32;;;;;;;16.90;5.72;;;25.10;99.90;;;;;;5020929;28;20618;-89
2022/06/04 08:11:51;;;;;;;14.27;5.93;;;25.20;99.90;;;;;;5039945;28;20017;-87
2022/06/04 08:13:54;;;;;;;11.25;5.80;;;25.20;99.90;;;;;;5022002;28;20046;-82
2022/06/04 08:16:21;;;;;;;11.70;6.10;;;25.20;99.90;;;;;;5040578;28;20264;-87
2022/06/04 08:18:49;;;;;;;13.95;5.72;;;25.20;99.90;;;;;;5033162;28;20028;-87
2022/06/04 08:21:15;;;;;;;14.02;5.50;;;25.20;99.90;;;;;;5019814;28;20511;-84
2022/06/04 08:23:43;;;;;;;10.57;5.82;;;25.20;99.90;;;;;;5039259;28;20028;-83
2022/06/04 08:26:10;;;;;;;13.95;5.45;;;25.20;99.90;;;;;;5023274;28;20025;-88
2022/06/04 08:28:39;;;;;;;11.73;5.18;;;25.30;99.90;;;;;;5041587;28;20033;-84
2022/06/04 08:31:08;;;;;;;16.35;6.03;;;25.50;99.90;;;;;;5032373;28;20029;-83
2022/06/04 08:33:36;;;;;;;10.02;5.25;;;25.70;99.90;;;;;;5040664;28;20024;-83
2022/06/04 08:36:02;;;;;;;13.20;5.75;;;25.80;99.90;;;;;;5037384;28;20108;-86
2022/06/04 08:38:28;;;;;;;11.60;5.47;;;25.80;99.90;;;;;;5040978;28;20108;-82
2022/06/04 08:40:58;;;;;;;10.70;5.40;;;25.80;99.90;;;;;;5036121;28;20112;-87
2022/06/04 08:43:42;;;;;;;10.70;5.65;;;25.80;99.90;;;;;;5026042;28;20025;-88
2022/06/04 08:46:14;;;;;;;12.35;5.75;;;25.90;99.90;;;;;;5039245;28;20358;-87
2022/06/04 08:48:42;;;;;;;16.38;5.38;;;25.90;99.90;;;;;;5031435;28;20136;-89
2022/06/04 08:51:19;;;;;;;14.43;5.60;;;25.80;99.90;;;;;;5028382;28;20095;-87
2022/06/04 08:53:50;;;;;;;17.60;6.07;;;26.00;99.90;;;;;;5039657;28;20033;-91
2022/06/04 08:59:28;;;;;;;10.93;5.53;;;26.10;99.90;;;;;;5039864;28;20036;-89
2022/06/04 09:02:01;;;;;;;17.38;5.15;;;26.20;99.90;;;;;;5020562;28;20037;-89
2022/06/04 09:04:45;;;;;;;10.68;4.60;;;26.20;99.90;;;;;;5026691;28;20009;-86
2022/06/04 09:07:31;;;;;;;13.00;5.32;;;26.10;99.90;;;;;;5043690;28;20029;-85
2022/06/04 09:10:11;;;;;;;16.33;5.47;;;26.10;99.90;;;;;;5024497;28;20037;-86
2022/06/04 09:13:22;;;;;;;13.00;4.93;;;26.20;99.90;;;;;;5021632;28;20040;-88
2022/06/04 09:15:54;;;;;;;9.40;4.97;;;26.20;99.90;;;;;;5036169;28;20037;-88
2022/06/04 09:18:32;;;;;;;10.95;5.25;;;26.30;99.90;;;;;;5042898;28;20017;-88
2022/06/04 09:21:00;;;;;;;10.07;5.82;;;26.40;99.90;;;;;;5025454;28;20025;-88
2022/06/04 09:23:36;;;;;;;12.68;5.32;;;26.50;99.90;;;;;;5038845;28;20017;-88
2022/06/04 09:26:12;;;;;;;10.85;6.13;;;26.50;99.90;;;;;;5040326;28;20025;-89
2022/06/04 09:28:50;;;;;;;10.23;6.13;;;26.30;99.90;;;;;;5030919;28;20267;-88
2022/06/04 09:31:28;;;;;;;12.23;6.25;;;26.10;99.90;;;;;;5045697;28;20026;-88
2022/06/04 09:33:58;;;;;;;9.25;5.22;;;25.90;99.90;;;;;;5011501;28;20030;-89
2022/06/04 09:36:34;;;;;;;9.65;4.85;;;25.80;99.90;;;;;;5020017;28;20025;-89
2022/06/04 09:39:04;;;;;;;14.85;4.90;;;25.90;99.90;;;;;;5023464;28;20037;-88
2022/06/04 09:41:33;;;;;;;8.25;4.95;;;25.80;99.90;;;;;;5043955;28;20041;-90
2022/06/04 09:44:11;;;;;;;9.05;5.00;;;26.00;99.90;;;;;;5028538;28;20025;-88
2022/06/04 09:46:43;;;;;;;10.55;5.13;;;26.10;99.90;;;;;;5038111;28;20079;-88
2022/06/04 09:49:32;;;;;;;11.73;6.28;;;26.20;99.90;;;;;;5022342;28;20036;-88
2022/06/04 09:51:58;;;;;;;9.38;5.50;;;26.10;99.90;;;;;;5036713;28;20124;-90
2022/06/04 09:54:32;;;;;;;17.67;5.65;;;26.30;99.90;;;;;;5020605;28;20041;-89
2022/06/04 09:57:05;;;;;;;11.27;4.88;;;26.40;99.90;;;;;;5036755;28;20029;-89
2022/06/04 09:59:33;;;;;;;13.27;4.82;;;26.50;99.90;;;;;;5043200;28;20021;-88
2022/06/04 10:02:18;;;;;;;8.73;4.97;;;26.60;99.90;;;;;;5033334;28;20057;-87
2022/06/04 10:04:49;;;;;;;8.48;4.43;;;26.70;99.90;;;;;;5033921;28;20105;-89
2022/06/04 10:07:27;;;;;;;10.05;4.78;;;26.70;99.90;;;;;;5042036;28;20080;-89
2022/06/04 10:09:56;;;;;;;9.90;5.15;;;26.80;99.90;;;;;;5047141;28;20116;-87
2022/06/04 10:15:30;;;;;;;12.68;4.75;;;27.00;99.90;;;;;;5043933;28;20130;-89
2022/06/04 10:18:03;;;;;;;8.48;4.13;;;27.10;99.90;;;;;;5044003;28;20025;-88
2022/06/04 10:20:29;;;;;;;15.90;4.90;;;27.10;99.90;;;;;;5041997;28;20028;-87
2022/06/04 10:22:56;;;;;;;10.30;5.00;;;27.00;99.90;;;;;;5043001;28;20026;-89
2022/06/04 10:25:28;;;;;;;11.98;4.65;;;27.20;99.90;;;;;;5031761;28;20021;-90
2022/06/04 10:28:38;;;;;;;10.65;5.10;;;27.30;99.90;;;;;;5042223;28;20116;-88
2022/06/04 10:31:29;;;;;;;13.52;5.07;;;27.40;99.90;;;;;;5010270;28;20029;-90
2022/06/04 10:34:21;;;;;;;13.23;4.65;;;27.20;99.90;;;;;;5028974;28;20033;-89
2022/06/04 10:36:58;;;;;;;10.27;5.22;;;27.10;99.90;;;;;;5029873;28;20124;-88
2022/06/04 10:39:56;;;;;;;10.32;5.10;;;27.10;99.90;;;;;;5040058;28;20107;-88
2022/06/04 10:42:59;;;;;;;11.82;5.30;;;26.90;99.90;;;;;;5038176;28;20091;-87
2022/06/04 10:45:49;;;;;;;14.55;6.13;;;26.80;99.90;;;;;;5038344;28;20021;-88
2022/06/04 10:48:27;;;;;;;12.88;5.47;;;26.70;99.90;;;;;;5034857;28;20032;-88
2022/06/04 10:53:56;;;;;;;9.70;5.22;;;27.00;99.90;;;;;;5043594;28;20043;-86
2022/06/04 10:56:49;;;;;;;9.68;4.55;;;26.90;99.90;;;;;;5020122;28;20033;-86
2022/06/04 10:59:38;;;;;;;13.18;5.28;;;26.90;99.90;;;;;;4973909;28;20036;-88
2022/06/04 11:02:36;;;;;;;13.82;5.00;;;27.00;99.90;;;;;;5033776;28;20021;-88
2022/06/04 11:05:13;;;;;;;10.27;5.38;;;27.10;99.90;;;;;;5012103;28;20037;-86
2022/06/04 11:07:42;;;;;;;12.05;5.55;;;26.80;99.90;;;;;;5034006;28;20022;-87
2022/06/04 11:10:18;;;;;;;12.65;6.00;;;26.60;99.90;;;;;;5020340;28;20388;-90
2022/06/04 11:12:44;;;;;;;22.58;5.82;;;26.60;99.90;;;;;;5036331;28;20440;-90
2022/06/04 11:15:20;;;;;;;11.88;5.95;;;26.60;99.90;;;;;;5023388;28;20203;-89
2022/06/04 11:18:02;;;;;;;11.95;5.95;;;26.40;99.90;;;;;;5047187;28;20060;-90
2022/06/04 11:20:33;;;;;;;;;;;26.30;99.90;;;;;;5032274;28;20057;-88
2022/06/04 11:23:20;;;;;;;17.17;6.13;;;26.30;99.90;;;;;;5040430;28;19920;-95
2022/06/04 11:25:49;;;;;;;12.57;5.80;;;26.20;99.90;;;;;;5041044;28;20383;-91
2022/06/04 11:28:24;;;;;;;14.38;5.97;;;26.30;99.90;;;;;;5018253;28;20388;-88
2022/06/04 11:31:07;;;;;;;15.45;5.97;;;26.20;99.90;;;;;;5023270;28;20017;-93
2022/06/04 11:33:54;;;;;;;17.00;6.45;;;26.20;99.90;;;;;;5046713;28;20021;-87
2022/06/04 11:36:42;;;;;;;14.93;6.43;;;26.20;99.90;;;;;;5036158;28;20029;-93
2022/06/04 11:39:30;;;;;;;13.02;6.20;;;26.30;99.90;;;;;;5025347;28;20018;-90
2022/06/04 11:42:17;;;;;;;17.38;6.20;;;26.60;99.90;;;;;;5042398;28;20021;-91
2022/06/04 11:44:51;;;;;;;19.77;5.68;;;26.60;99.90;;;;;;5039238;28;20017;-93
2022/06/04 11:47:24;;;;;;;13.45;5.55;;;26.50;99.90;;;;;;5032901;28;20036;-87
2022/06/04 11:49:59;;;;;;;17.75;6.30;;;26.70;99.90;;;;;;5037718;28;20024;-89
2022/06/04 11:52:27;;;;;;;12.90;5.95;;;26.70;99.90;;;;;;5029191;28;20047;-90
2022/06/04 11:55:14;;;;;;;17.23;7.15;;;27.00;99.90;;;;;;5040812;28;20120;-88
2022/06/04 11:57:53;;;;;;;12.00;6.90;;;27.20;99.90;;;;;;5027265;28;20037;-88
2022/06/04 12:00:32;;;;;;;11.63;6.00;;;27.40;99.90;;;;;;5043598;28;20438;-93
2022/06/04 12:03:24;;;;;;;10.32;5.95;;;29.90;99.90;;;;;;5022600;28;20168;-93
2022/06/04 12:06:11;;;;;;;17.03;7.00;;;31.90;99.90;;;;;;5030116;28;20083;-90
2022/06/04 12:08:44;;;;;;;12.50;6.55;;;33.50;99.90;;;;;;5043450;28;20017;-88
2022/06/04 12:11:13;;;;;;;14.98;7.03;;;34.00;99.90;;;;;;5035579;28;20037;-85
2022/06/04 12:14:04;;;;;;;8.82;6.63;;;34.40;99.90;;;;;;5015815;28;20029;-86
2022/06/04 12:17:05;;;;;;;14.63;6.65;;;34.10;99.90;;;;;;5016833;28;20029;-85
2022/06/04 12:25:42;;;;;;;14.90;7.00;;;34.50;99.90;;;;;;5033684;28;20617;-86
2022/06/04 12:28:23;;;;;;;10.43;6.97;;;34.20;99.90;;;;;;5034311;28;20469;-85
2022/06/04 12:30:50;;;;;;;11.50;5.28;;;34.50;99.90;;;;;;5012852;28;20069;-85
2022/06/04 12:33:28;;;;;;;13.57;6.50;;;34.10;99.90;;;;;;5017436;28;20033;-86
2022/06/04 12:36:02;;;;;;;14.65;7.57;;;34.20;99.90;;;;;;5034921;28;20040;-85
2022/06/04 12:38:29;;;;;;;9.82;7.00;;;34.20;99.90;;;;;;5034702;28;20021;-86
2022/06/04 12:41:18;;;;;;;12.00;7.60;;;34.50;99.90;;;;;;5017289;28;20030;-84
2022/06/04 12:43:59;;;;;;;14.30;7.13;;;35.10;99.90;;;;;;5034048;28;20025;-86
2022/06/04 12:46:26;;;;;;;11.80;7.22;;;36.50;99.90;;;;;;5035194;28;20010;-94
2022/06/04 12:49:01;;;;;;;16.10;7.70;;;37.00;99.90;;;;;;5034904;28;20022;-95
2022/06/04 12:51:45;;;;;;;9.77;6.22;;;37.20;99.90;;;;;;5037421;28;20484;-91
2022/06/04 12:54:51;;;;;;;11.45;6.65;;;37.90;99.90;;;;;;5018265;28;20519;-89
2022/06/04 12:57:45;;;;;;;13.90;5.70;;;39.30;99.90;;;;;;5034071;28;20488;-90
2022/06/04 13:00:17;;;;;;;12.48;6.18;;;41.10;99.90;;;;;;5020722;28;20014;-87
2022/06/04 13:02:54;;;;;;;;;;;41.40;99.90;;;;;;5038394;28;20114;-88
2022/06/04 13:05:22;;;;;;;13.70;7.65;;;40.80;99.90;;;;;;5021247;28;19995;-88
2022/06/04 13:08:01;;;;;;;13.85;6.95;;;39.70;99.90;;;;;;5025313;28;20057;-88
2022/06/04 13:10:33;;;;;;;14.50;8.45;;;39.40;99.90;;;;;;5040693;28;20017;-86
2022/06/04 13:13:25;;;;;;;13.00;7.07;;;38.70;99.90;;;;;;5044022;28;20588;-88
2022/06/04 13:15:58;;;;;;;15.55;9.85;;;37.40;99.90;;;;;;5013722;28;20041;-89
2022/06/04 13:18:31;;;;;;;15.43;8.68;;;37.20;99.90;;;;;;5036657;28;20568;-89
2022/06/04 13:21:02;;;;;;;17.77;10.65;;;37.30;99.90;;;;;;5024677;28;20029;-86
2022/06/04 13:23:32;;;;;;;18.58;9.70;;;36.60;99.90;;;;;;5042064;28;20074;-87
2022/06/04 13:26:25;;;;;;;21.27;9.07;;;36.60;99.90;;;;;;5037937;28;20056;-88
2022/06/04 13:28:51;;;;;;;16.05;8.38;;;36.50;99.90;;;;;;5016708;28;20033;-85
2022/06/04 13:31:23;;;;;;;16.02;7.10;;;36.80;99.90;;;;;;5025064;28;20175;-89
2022/06/04 13:33:51;;;;;;;10.18;5.68;;;36.80;99.90;;;;;;5036342;28;20757;-91
2022/06/04 13:36:22;;;;;;;10.82;5.88;;;38.10;99.90;;;;;;5047311;28;20040;-91